createdAt,value
2023-04-26T00:00:09.525Z,49.12
2023-04-26T00:02:38.178Z,49.36
2023-04-26T00:05:09.558Z,49.26
2023-04-26T00:07:39.329Z,49.51
2023-04-26T00:10:08.912Z,49.52
2023-04-26T00:12:38.100Z,49.44
2023-04-26T00:15:09.668Z,49.44
2023-04-26T00:17:38.402Z,49.70
2023-04-26T00:20:10.515Z,49.73
2023-04-26T00:22:39.036Z,49.69
2023-04-26T00:25:08.217Z,49.60
2023-04-26T00:27:36.660Z,49.65
2023-04-26T00:30:05.614Z,49.89
2023-04-26T00:32:36.537Z,49.76
2023-04-26T00:35:05.708Z,49.97
2023-04-26T00:37:34.236Z,50.01
2023-04-26T00:40:02.572Z,49.95
2023-04-26T00:42:31.343Z,49.81
2023-04-26T00:44:59.695Z,50.06
2023-04-26T00:47:30.902Z,49.75
2023-04-26T00:50:01.192Z,49.77
2023-04-26T00:52:30.170Z,50.04
2023-04-26T00:54:59.178Z,50.07
2023-04-26T00:57:27.543Z,50.13
2023-04-26T00:59:55.926Z,50.28
2023-04-26T01:02:24.441Z,50.29
2023-04-26T01:04:52.990Z,50.18
2023-04-26T01:07:23.076Z,50.34
2023-04-26T01:09:51.798Z,50.22
2023-04-26T01:12:20.858Z,50.32
2023-04-26T01:14:49.386Z,50.36
2023-04-26T01:17:17.760Z,50.17
2023-04-26T01:19:49.902Z,50.35
2023-04-26T01:22:18.272Z,50.38
2023-04-26T01:24:51.600Z,50.48
2023-04-26T01:27:20.004Z,50.34
2023-04-26T01:29:48.319Z,50.52
2023-04-26T01:32:16.636Z,50.46
2023-04-26T01:34:44.969Z,50.57
2023-04-26T01:37:13.369Z,50.71
2023-04-26T01:39:41.707Z,50.80
2023-04-26T01:42:11.887Z,50.63
2023-04-26T01:44:40.858Z,50.56
2023-04-26T01:47:09.239Z,50.90
2023-04-26T01:49:37.741Z,50.94
2023-04-26T01:52:06.490Z,50.94
2023-04-26T01:54:34.855Z,51.09
2023-04-26T01:57:03.958Z,50.95
2023-04-26T01:59:33.720Z,51.17
2023-04-26T02:02:02.182Z,51.40
2023-04-26T02:04:30.709Z,51.26
2023-04-26T02:06:59.212Z,51.31
2023-04-26T02:09:27.487Z,51.32
2023-04-26T02:11:55.817Z,51.37
2023-04-26T02:14:24.175Z,51.40
2023-04-26T02:16:53.953Z,51.54
2023-04-26T02:19:22.294Z,51.84
2023-04-26T02:21:55.836Z,51.66
2023-04-26T02:24:24.355Z,51.76
2023-04-26T02:26:53.197Z,51.53
2023-04-26T02:29:29.746Z,52.03
2023-04-26T02:32:12.077Z,51.97
2023-04-26T02:34:40.825Z,52.04
2023-04-26T02:37:09.416Z,52.45
2023-04-26T02:39:37.832Z,52.12
2023-04-26T02:42:10.798Z,52.35
2023-04-26T02:44:39.910Z,52.44
2023-04-26T02:47:09.942Z,52.34
2023-04-26T02:49:40.122Z,52.35
2023-04-26T02:52:08.400Z,52.69
2023-04-26T02:54:36.719Z,52.73
2023-04-26T02:57:06.306Z,52.94
2023-04-26T02:59:34.708Z,52.88
2023-04-26T03:02:03.092Z,52.92
2023-04-26T03:04:36.614Z,52.84
2023-04-26T03:07:06.576Z,53.13
2023-04-26T03:09:35.010Z,53.03
2023-04-26T03:12:03.485Z,53.27
2023-04-26T03:14:31.797Z,53.17
2023-04-26T03:17:00.181Z,53.06
2023-04-26T03:19:28.783Z,53.14
2023-04-26T03:21:57.607Z,53.04
2023-04-26T03:24:27.672Z,53.25
2023-04-26T03:26:55.958Z,53.39
2023-04-26T03:29:24.292Z,53.47
2023-04-26T03:31:52.632Z,53.30
2023-04-26T03:34:21.078Z,53.25
2023-04-26T03:36:49.425Z,52.94
2023-04-26T03:39:17.982Z,53.35
2023-04-26T03:41:47.849Z,53.52
2023-04-26T03:44:16.787Z,53.39
2023-04-26T03:46:45.183Z,53.57
2023-04-26T03:49:13.521Z,53.50
2023-04-26T03:51:42.081Z,53.70
2023-04-26T03:54:11.221Z,53.56
2023-04-26T03:56:40.206Z,53.54
2023-04-26T03:59:10.491Z,53.49
2023-04-26T04:01:38.854Z,53.54
2023-04-26T04:04:07.272Z,53.73
2023-04-26T04:06:35.932Z,53.82
2023-04-26T04:09:05.609Z,53.78
2023-04-26T04:11:35.037Z,53.85
2023-04-26T04:14:03.339Z,53.83
2023-04-26T04:16:33.120Z,54.10
2023-04-26T04:19:01.370Z,54.04
2023-04-26T04:21:29.650Z,54.31
2023-04-26T04:23:57.978Z,54.44
2023-04-26T04:26:26.499Z,54.59
2023-04-26T04:28:55.345Z,54.69
2023-04-26T04:31:24.291Z,54.58
2023-04-26T04:33:54.081Z,54.66
2023-04-26T04:36:23.054Z,54.62
2023-04-26T04:38:51.800Z,54.67
2023-04-26T04:41:20.695Z,54.89
2023-04-26T04:43:49.059Z,54.76
2023-04-26T04:46:17.424Z,54.84
2023-04-26T04:48:45.774Z,54.79
2023-04-26T04:51:15.559Z,54.82
2023-04-26T04:53:43.834Z,54.82
2023-04-26T04:56:12.159Z,54.74
2023-04-26T04:58:40.446Z,54.91
2023-04-26T05:01:08.870Z,54.66
2023-04-26T05:03:37.470Z,54.85
2023-04-26T05:06:07.009Z,54.74
2023-04-26T05:08:37.285Z,54.94
2023-04-26T05:11:05.636Z,54.83
2023-04-26T05:13:33.961Z,54.70
2023-04-26T05:16:02.561Z,54.75
2023-04-26T05:18:30.836Z,54.76
2023-04-26T05:20:59.747Z,55.10
2023-04-26T05:23:28.231Z,55.08
2023-04-26T05:25:58.258Z,55.11
2023-04-26T05:28:27.211Z,55.10
2023-04-26T05:30:55.798Z,55.40
2023-04-26T05:33:24.234Z,55.19
2023-04-26T05:35:54.345Z,55.29
2023-04-26T05:38:23.270Z,55.32
2023-04-26T05:40:51.983Z,55.17
2023-04-26T05:43:21.748Z,55.08
2023-04-26T05:45:53.656Z,55.00
2023-04-26T05:48:22.662Z,54.86
2023-04-26T05:50:51.347Z,54.98
2023-04-26T05:53:20.491Z,54.89
2023-04-26T05:55:49.208Z,54.77
2023-04-26T05:58:17.494Z,54.44
2023-04-26T06:00:47.932Z,54.48
2023-04-26T06:03:16.651Z,54.48
2023-04-26T17:19:57.067Z,36.69
2023-04-26T17:22:25.383Z,36.71
2023-04-26T17:24:53.707Z,36.81
2023-04-26T17:27:22.447Z,36.84
2023-04-26T17:29:51.058Z,36.79
2023-04-26T17:32:19.501Z,36.74
2023-04-26T17:34:48.342Z,36.91
2023-04-26T17:37:18.715Z,37.18
2023-04-26T17:39:47.096Z,37.42
2023-04-26T17:42:17.664Z,37.31
2023-04-26T17:44:47.354Z,37.37
2023-04-26T17:47:17.008Z,37.42
2023-04-26T17:49:46.588Z,37.67
2023-04-26T17:52:15.003Z,37.59
2023-04-26T17:54:44.742Z,37.89
2023-04-26T17:57:13.094Z,37.68
2023-04-26T17:59:41.710Z,38.17
2023-04-26T18:02:10.004Z,38.10
2023-04-26T18:04:38.679Z,38.28
2023-04-26T18:07:07.831Z,38.59
2023-04-26T18:09:36.971Z,38.64
2023-04-26T18:12:07.015Z,38.89
2023-04-26T18:14:35.418Z,38.87
2023-04-26T18:17:05.371Z,39.29
2023-04-26T18:19:33.671Z,39.24
2023-04-26T18:22:02.060Z,39.62
2023-04-26T18:24:31.126Z,39.64
2023-04-26T18:27:01.468Z,39.90
2023-04-26T18:29:32.768Z,39.82
2023-04-26T18:32:02.153Z,39.95
2023-04-26T18:34:30.517Z,40.07
2023-04-26T18:36:59.011Z,40.39
